Brunswick Golden Isles Airport Brunswick US
ICAO: KBQK
IATA: BQK
Category: Medium
Scheduled Services: Yes

Elevation: 26 ft
TransAlt. 18000 ft.

Airport Communications:
AWOS 3:124.175
CLNC DEL:126.75
JACKSONVILLE CNTR:126.75
MACON RDO:122.2
CTAF/UNICOM:122.8

KBQK Zoom In..

Runways:

(A) RW 07 length 8001 ft width 150 ft
ILS 108.50 / hdg 69

(B) RW 25 length 8001 ft width 150 ft
---- / hdg 249

Location; KBQK
Day. 24 / Time. 07.35 Zulu
* Altimeter: 30.07
* Temperature: 23° c. 73.4°f.
* Wind from: 210° Speed 03 kn.
Dewpoint: 20° c.
Visibility: 10 Statute Miles.
Clouds: Overcast 8500 ft.

KBQK 240735Z AUTO 21003KT 10SM OVC085 23/20 A3007 RMK AO2


Wind From 210°
Speed 03 kn.

 
 
jpsmedia.com for Web Design SOUNDCLOUD worldairports.se 2018   terms of use